createdAt,value
2022-08-21T00:01:55.496Z,6.95
2022-08-21T00:04:29.455Z,5.90
2022-08-21T00:06:59.130Z,5.88
2022-08-21T00:09:27.675Z,5.60
2022-08-21T00:11:56.041Z,5.75
2022-08-21T00:14:24.378Z,5.82
2022-08-21T00:16:57.269Z,5.75
2022-08-21T00:19:29.557Z,5.68
2022-08-21T00:21:57.919Z,6.55
2022-08-21T00:24:27.610Z,6.10
2022-08-21T00:26:56.240Z,5.83
2022-08-21T00:29:24.465Z,6.03
2022-08-21T00:31:54.383Z,5.82
2022-08-21T00:34:22.961Z,6.15
2022-08-21T00:36:51.354Z,6.00
2022-08-21T00:39:19.815Z,5.70
2022-08-21T00:41:48.139Z,5.03
2022-08-21T00:44:18.449Z,5.63
2022-08-21T00:46:47.591Z,5.05
2022-08-21T00:49:17.307Z,5.30
2022-08-21T00:51:51.954Z,5.05
2022-08-21T00:54:25.574Z,5.00
2022-08-21T00:57:00.629Z,5.35
2022-08-21T00:59:31.877Z,6.22
2022-08-21T01:02:00.453Z,5.47
2022-08-21T01:04:30.089Z,5.78
2022-08-21T01:06:58.705Z,6.13
2022-08-21T01:09:27.091Z,5.95
2022-08-21T01:11:55.859Z,5.88
2022-08-21T01:14:24.346Z,5.57
2022-08-21T01:16:55.071Z,5.57
2022-08-21T01:19:24.373Z,5.80
2022-08-21T01:21:55.408Z,5.70
2022-08-21T01:24:24.635Z,5.43
2022-08-21T01:26:53.962Z,5.18
2022-08-21T01:29:33.955Z,5.63
2022-08-21T01:32:08.918Z,5.68
2022-08-21T01:34:41.302Z,5.72
2022-08-21T01:37:11.191Z,5.60
2022-08-21T01:39:40.298Z,5.75
2022-08-21T01:42:09.656Z,6.07
2022-08-21T01:44:38.366Z,5.70
2022-08-21T01:47:10.698Z,5.03
2022-08-21T01:49:41.731Z,5.28
2022-08-21T01:52:12.574Z,5.55
2022-08-21T01:54:41.612Z,5.30
2022-08-21T01:57:11.709Z,5.93
2022-08-21T01:59:40.160Z,4.80
2022-08-21T02:02:08.895Z,4.65
2022-08-21T02:04:37.184Z,4.40
2022-08-21T02:07:07.122Z,5.18
2022-08-21T02:09:43.105Z,4.85
2022-08-21T02:12:11.789Z,4.70
2022-08-21T02:14:40.110Z,6.00
2022-08-21T02:17:09.802Z,5.05
2022-08-21T02:19:40.756Z,4.97
2022-08-21T02:22:10.409Z,5.45
2022-08-21T02:24:53.839Z,5.43
2022-08-21T02:27:26.077Z,5.47
2022-08-21T02:29:57.661Z,4.68
2022-08-21T02:34:55.297Z,5.70
2022-08-21T02:37:23.971Z,5.75
2022-08-21T02:39:53.781Z,4.57
2022-08-21T02:42:22.259Z,4.95
2022-08-21T02:44:50.534Z,5.38
2022-08-21T02:47:18.883Z,5.10
2022-08-21T02:49:47.236Z,4.95
2022-08-21T02:52:15.725Z,5.85
2022-08-21T02:54:44.064Z,5.25
2022-08-21T02:57:13.812Z,5.95
2022-08-21T02:59:42.464Z,5.37
2022-08-21T03:02:12.482Z,5.15
2022-08-21T03:04:45.998Z,5.45
2022-08-21T03:07:16.275Z,5.88
2022-08-21T03:09:55.096Z,5.57
2022-08-21T03:12:27.862Z,6.38
2022-08-21T03:14:58.347Z,6.10
2022-08-21T03:17:29.339Z,5.75
2022-08-21T03:19:58.967Z,5.93
2022-08-21T03:22:27.435Z,6.22
2022-08-21T03:24:58.279Z,5.88
2022-08-21T03:27:29.759Z,5.67
2022-08-21T03:29:59.089Z,6.10
2022-08-21T03:32:27.385Z,6.10
2022-08-21T03:34:55.775Z,5.82
2022-08-21T03:37:25.364Z,6.07
2022-08-21T03:39:53.887Z,5.70
2022-08-21T03:42:22.565Z,5.95
2022-08-21T03:44:52.338Z,6.53
2022-08-21T03:47:20.722Z,6.22
2022-08-21T03:49:48.972Z,6.30
2022-08-21T03:52:17.950Z,6.18
2022-08-21T03:54:47.348Z,6.20
2022-08-21T03:57:16.326Z,5.95
2022-08-21T03:59:45.351Z,6.22
2022-08-21T04:02:19.261Z,6.03
2022-08-21T04:04:47.546Z,5.93
2022-08-21T04:07:15.906Z,6.55
2022-08-21T04:09:44.273Z,6.55
2022-08-21T04:12:12.521Z,6.50
2022-08-21T04:14:40.808Z,6.25
2022-08-21T04:17:09.072Z,6.60
2022-08-21T04:19:38.723Z,6.47
2022-08-21T04:22:07.110Z,6.68
2022-08-21T04:24:35.689Z,7.03
2022-08-21T04:27:03.950Z,5.97
2022-08-21T04:29:32.386Z,6.50
2022-08-21T04:32:00.653Z,6.60
2022-08-21T04:34:28.968Z,7.18
2022-08-21T04:36:58.527Z,6.78
2022-08-21T04:39:29.797Z,6.75
2022-08-21T04:41:58.280Z,7.32
2022-08-21T04:44:26.606Z,7.53
2022-08-21T04:46:54.896Z,7.57
2022-08-21T04:49:23.382Z,6.65
2022-08-21T04:51:51.957Z,6.93
2022-08-21T04:54:24.382Z,7.35
2022-08-21T04:56:56.846Z,7.15
2022-08-21T04:59:29.575Z,7.00
2022-08-21T05:01:58.621Z,7.50
2022-08-21T05:04:32.130Z,7.97
2022-08-21T05:07:05.048Z,7.63
2022-08-21T05:09:35.575Z,7.38
2022-08-21T05:12:05.292Z,8.80
2022-08-21T05:14:34.053Z,9.17
2022-08-21T05:17:02.302Z,7.75
2022-08-21T05:19:30.648Z,9.95
2022-08-21T05:21:59.404Z,8.55
2022-08-21T05:24:27.910Z,8.50
2022-08-21T05:26:57.532Z,8.43
2022-08-21T05:29:25.750Z,8.77
2022-08-21T05:31:55.223Z,8.60
2022-08-21T05:34:25.472Z,8.50
2022-08-21T05:36:53.792Z,8.48
2022-08-21T05:39:22.032Z,8.25
2022-08-21T05:41:50.339Z,7.93
2022-08-21T05:44:20.481Z,7.85
2022-08-21T05:46:50.703Z,8.27
2022-08-21T05:49:19.367Z,8.43
2022-08-21T05:51:47.759Z,8.50
2022-08-21T05:54:16.052Z,8.10
2022-08-21T05:56:45.570Z,7.72
2022-08-21T05:59:14.067Z,8.15
2022-08-21T06:01:43.983Z,8.65
2022-08-21T06:04:12.251Z,7.88
2022-08-21T06:06:40.587Z,7.72
2022-08-21T06:09:09.288Z,8.20
2022-08-21T06:11:37.934Z,7.82
2022-08-21T06:14:07.426Z,7.65
2022-08-21T06:16:35.717Z,7.57
2022-08-21T06:19:05.395Z,7.65
2022-08-21T06:21:33.851Z,7.33
2022-08-21T06:24:02.111Z,7.95
2022-08-21T06:26:30.469Z,8.07
2022-08-21T06:28:58.814Z,8.13
2022-08-21T06:31:29.723Z,7.60
2022-08-21T06:33:58.699Z,6.90
2022-08-21T06:36:28.509Z,7.75
2022-08-21T06:38:57.153Z,8.60
2022-08-21T06:41:27.035Z,8.02
2022-08-21T06:43:57.139Z,7.88
2022-08-21T06:46:27.002Z,6.97
2022-08-21T06:48:55.451Z,6.78
2022-08-21T06:51:23.916Z,6.85
2022-08-21T06:53:53.666Z,6.55
2022-08-21T06:56:22.787Z,7.68
2022-08-21T06:58:51.142Z,6.18
2022-08-21T07:01:19.554Z,6.32
2022-08-21T07:03:47.907Z,6.85
2022-08-21T07:06:16.189Z,6.55
2022-08-21T07:08:45.170Z,6.70
2022-08-21T07:11:20.403Z,6.40
2022-08-21T07:13:49.409Z,6.18
2022-08-21T07:16:17.688Z,6.10
2022-08-21T07:18:46.051Z,6.03
2022-08-21T07:21:14.603Z,6.22
2022-08-21T07:23:46.797Z,6.50
2022-08-21T07:26:19.314Z,5.93
2022-08-21T07:28:47.768Z,6.78
2022-08-21T07:31:18.912Z,5.78
2022-08-21T07:33:48.030Z,6.20
2022-08-21T07:36:16.895Z,6.35
2022-08-21T07:38:45.989Z,6.35
2022-08-21T07:41:21.122Z,6.40
2022-08-21T07:43:49.636Z,5.30
2022-08-21T07:46:21.346Z,6.20
2022-08-21T07:48:49.734Z,5.97
2022-08-21T07:51:20.456Z,6.05
2022-08-21T07:53:52.028Z,5.70
2022-08-21T07:56:22.219Z,5.35
2022-08-21T07:58:50.814Z,4.82
2022-08-21T08:01:19.992Z,5.10
2022-08-21T08:03:48.867Z,5.50
2022-08-21T08:06:19.608Z,5.35
2022-08-21T08:08:48.446Z,5.35
2022-08-21T08:11:17.954Z,6.40
2022-08-21T08:13:50.899Z,5.57
2022-08-21T08:16:20.405Z,5.35
2022-08-21T08:18:49.006Z,5.00
2022-08-21T08:21:19.766Z,5.43
2022-08-21T08:23:48.055Z,4.72
2022-08-21T08:26:16.636Z,5.50
2022-08-21T08:28:45.016Z,4.72
2022-08-21T08:31:14.688Z,4.97
2022-08-21T08:33:43.094Z,5.40
2022-08-21T08:36:16.716Z,5.32
2022-08-21T08:38:45.420Z,4.97
2022-08-21T08:41:17.209Z,5.03
2022-08-21T08:43:53.111Z,4.60
2022-08-21T08:46:34.061Z,4.38
2022-08-21T08:49:08.801Z,4.40
2022-08-21T08:51:46.469Z,4.32
2022-08-21T08:54:19.955Z,4.53
2022-08-21T08:56:48.711Z,4.75
2022-08-21T08:59:21.879Z,4.28
2022-08-21T09:01:52.324Z,4.57
2022-08-21T09:07:07.210Z,3.70
2022-08-21T09:09:50.815Z,4.28
2022-08-21T09:12:33.302Z,4.25
2022-08-21T09:15:12.096Z,4.68
2022-08-21T09:18:07.668Z,4.45
2022-08-21T09:20:43.569Z,4.38
2022-08-21T09:23:26.464Z,4.60
2022-08-21T09:26:05.000Z,3.92
2022-08-21T09:28:35.726Z,4.72
2022-08-21T09:31:08.634Z,6.07
2022-08-21T09:33:38.277Z,4.65
2022-08-21T09:36:07.257Z,4.30
2022-08-21T09:38:38.893Z,4.68
2022-08-21T09:41:10.915Z,4.38
2022-08-21T09:43:40.412Z,4.28
2022-08-21T09:46:14.390Z,4.68
2022-08-21T09:48:48.217Z,4.38
2022-08-21T09:51:23.979Z,4.30
2022-08-21T09:54:00.462Z,3.78
2022-08-21T09:56:50.985Z,4.15
2022-08-21T09:59:35.698Z,4.10
2022-08-21T10:02:30.357Z,4.45
2022-08-21T10:05:07.219Z,3.75
2022-08-21T10:07:39.184Z,4.03
2022-08-21T10:10:11.537Z,3.50
2022-08-21T10:12:51.254Z,4.13
2022-08-21T10:15:39.139Z,4.07
2022-08-21T10:18:23.455Z,3.80
2022-08-21T10:21:03.311Z,3.55
2022-08-21T10:23:47.709Z,3.85
2022-08-21T10:26:33.235Z,3.10
2022-08-21T10:29:10.937Z,3.90
2022-08-21T10:31:51.925Z,3.50
2022-08-21T10:34:34.697Z,3.08
2022-08-21T10:37:27.595Z,3.53
2022-08-21T10:40:11.117Z,3.47
2022-08-21T10:42:58.298Z,3.00
2022-08-21T10:45:41.650Z,3.70
2022-08-21T10:48:16.511Z,3.25
2022-08-21T10:50:54.588Z,3.55
2022-08-21T10:53:44.284Z,3.10
2022-08-21T10:56:19.545Z,3.50
2022-08-21T10:59:03.193Z,3.58
2022-08-21T11:01:43.561Z,3.42
2022-08-21T11:04:20.870Z,3.50
2022-08-21T11:06:54.655Z,3.45
2022-08-21T11:09:28.136Z,3.08
2022-08-21T11:12:11.405Z,3.15
2022-08-21T11:14:50.821Z,3.65
2022-08-21T11:17:26.690Z,3.22
2022-08-21T11:20:04.839Z,3.45
2022-08-21T11:22:40.531Z,3.17
2022-08-21T11:25:18.081Z,3.22
2022-08-21T11:27:53.585Z,3.80
2022-08-21T11:30:22.854Z,3.08
2022-08-21T11:33:15.903Z,3.30
2022-08-21T11:35:53.753Z,3.58
2022-08-21T11:38:39.713Z,2.95
2022-08-21T11:41:30.295Z,2.80
2022-08-21T11:46:45.367Z,3.50
2022-08-21T11:49:41.411Z,2.97
2022-08-21T11:52:17.402Z,3.20
2022-08-21T11:54:49.781Z,2.95
2022-08-21T11:57:25.682Z,3.53
2022-08-21T12:00:01.743Z,2.97
2022-08-21T12:02:37.553Z,3.50
2022-08-21T12:05:09.511Z,3.33
2022-08-21T12:07:41.299Z,3.13
2022-08-21T12:10:14.669Z,3.42
2022-08-21T12:12:46.642Z,3.30
2022-08-21T12:15:28.427Z,3.15
2022-08-21T12:18:01.953Z,3.22
2022-08-21T12:20:50.192Z,3.08
2022-08-21T12:23:31.427Z,3.40
2022-08-21T12:26:21.004Z,3.00
2022-08-21T12:28:51.336Z,3.10
2022-08-21T12:31:23.314Z,2.92
2022-08-21T12:34:00.556Z,3.20
2022-08-21T12:36:42.498Z,3.30
2022-08-21T12:39:20.537Z,3.00
2022-08-21T12:41:53.741Z,3.38
2022-08-21T12:44:32.237Z,2.95
2022-08-21T12:47:08.010Z,3.10
2022-08-21T12:49:39.833Z,3.30
2022-08-21T12:52:21.835Z,3.70
2022-08-21T12:54:50.735Z,3.28
2022-08-21T12:57:25.471Z,3.28
2022-08-21T13:00:00.846Z,3.22
2022-08-21T13:02:33.697Z,3.10
2022-08-21T13:05:08.306Z,3.10
2022-08-21T13:07:39.481Z,3.17
2022-08-21T13:10:20.981Z,3.22
2022-08-21T13:12:50.702Z,3.10
2022-08-21T13:15:30.381Z,2.85
2022-08-21T13:18:04.451Z,3.40
2022-08-21T13:20:36.874Z,3.08
2022-08-21T13:23:23.285Z,2.75
2022-08-21T13:25:51.830Z,3.17
2022-08-21T13:28:20.156Z,2.85
2022-08-21T13:30:52.283Z,3.33
2022-08-21T13:33:25.136Z,3.67
2022-08-21T13:36:12.114Z,3.65
2022-08-21T13:38:44.206Z,3.30
2022-08-21T13:41:22.772Z,3.38
2022-08-21T13:43:59.903Z,3.67
2022-08-21T13:46:35.960Z,3.70
2022-08-21T13:49:07.320Z,3.53
2022-08-21T13:51:37.378Z,3.60
2022-08-21T13:54:21.242Z,3.70
2022-08-21T13:56:49.767Z,3.58
2022-08-21T13:59:29.220Z,4.00
2022-08-21T14:02:02.382Z,3.97
2022-08-21T14:04:37.812Z,3.80
2022-08-21T14:07:19.995Z,3.88
2022-08-21T14:09:49.338Z,4.25
2022-08-21T14:12:23.835Z,4.07
2022-08-21T14:14:54.174Z,3.97
2022-08-21T14:17:33.529Z,4.15
2022-08-21T14:20:02.714Z,4.10
2022-08-21T14:22:42.129Z,4.43
2022-08-21T14:25:14.688Z,4.38
2022-08-21T14:27:54.258Z,4.15
2022-08-21T14:30:30.317Z,4.38
2022-08-21T14:33:00.586Z,4.20
2022-08-21T14:35:29.209Z,4.07
2022-08-21T14:37:58.200Z,4.28
2022-08-21T14:40:27.591Z,4.38
2022-08-21T14:42:56.404Z,4.50
2022-08-21T14:45:30.159Z,4.13
2022-08-21T14:48:00.914Z,4.57
2022-08-21T14:50:29.302Z,4.03
2022-08-21T14:52:57.770Z,4.82
2022-08-21T14:55:26.687Z,4.07
2022-08-21T14:57:57.118Z,4.40
2022-08-21T15:00:35.765Z,4.30
2022-08-21T15:03:06.176Z,4.75
2022-08-21T15:05:34.764Z,4.40
2022-08-21T15:08:03.380Z,4.20
2022-08-21T15:10:35.078Z,4.88
2022-08-21T15:13:04.552Z,4.50
2022-08-21T15:15:38.439Z,4.60
2022-08-21T15:18:08.353Z,4.55
2022-08-21T15:20:37.121Z,4.07
2022-08-21T15:23:07.018Z,4.43
2022-08-21T15:25:37.475Z,4.20
2022-08-21T15:28:06.272Z,4.85
2022-08-21T15:30:34.799Z,4.78
2022-08-21T15:33:03.130Z,4.38
2022-08-21T15:35:33.435Z,5.38
2022-08-21T15:38:01.722Z,4.78
2022-08-21T15:40:30.231Z,4.97
2022-08-21T15:43:01.948Z,4.97
2022-08-21T15:45:31.186Z,4.82
2022-08-21T15:47:59.962Z,4.35
2022-08-21T15:50:28.539Z,4.32
2022-08-21T15:52:58.276Z,4.55
2022-08-21T15:55:27.000Z,4.45
2022-08-21T15:57:56.780Z,7.05
2022-08-21T16:00:27.257Z,5.07
2022-08-21T16:02:59.862Z,4.20
2022-08-21T16:05:28.602Z,4.50
2022-08-21T16:07:58.258Z,5.13
2022-08-21T16:10:29.877Z,5.10
2022-08-21T16:13:04.872Z,4.55
2022-08-21T16:15:33.348Z,4.60
2022-08-21T16:18:01.657Z,4.90
2022-08-21T16:20:31.686Z,4.85
2022-08-21T16:23:01.800Z,5.32
2022-08-21T16:25:30.321Z,4.82
2022-08-21T16:28:04.111Z,4.65
2022-08-21T16:30:34.443Z,4.72
2022-08-21T16:33:05.546Z,5.03
2022-08-21T16:35:34.251Z,4.57
2022-08-21T16:38:04.163Z,4.20
2022-08-21T16:40:32.594Z,4.60
2022-08-21T16:43:00.995Z,4.60
2022-08-21T16:45:33.012Z,4.22
2022-08-21T16:48:04.394Z,4.65
2022-08-21T16:50:32.827Z,4.82
2022-08-21T16:53:01.176Z,4.32
2022-08-21T16:55:31.062Z,4.97
2022-08-21T16:58:01.093Z,4.40
2022-08-21T17:00:29.414Z,4.55
2022-08-21T17:02:58.248Z,5.15
2022-08-21T17:05:26.682Z,4.75
2022-08-21T17:07:55.136Z,4.90
2022-08-21T17:10:23.446Z,4.10
2022-08-21T17:12:58.520Z,4.47
2022-08-21T17:15:33.248Z,4.53
2022-08-21T17:18:02.273Z,4.50
2022-08-21T17:20:31.462Z,4.32
2022-08-21T17:23:00.101Z,4.40
2022-08-21T17:25:28.815Z,4.68
2022-08-21T17:27:59.554Z,4.32
2022-08-21T17:30:28.282Z,4.65
2022-08-21T17:32:58.786Z,4.88
2022-08-21T17:37:55.731Z,4.80
2022-08-21T17:40:25.892Z,3.90
2022-08-21T17:42:54.247Z,5.03
2022-08-21T17:45:24.361Z,4.57
2022-08-21T17:47:52.784Z,5.38
2022-08-21T17:50:22.427Z,4.38
2022-08-21T17:52:51.610Z,5.15
2022-08-21T17:55:21.052Z,4.55
2022-08-21T17:57:53.214Z,4.82
2022-08-21T18:00:25.206Z,4.80
2022-08-21T18:03:01.895Z,4.90
2022-08-21T18:05:30.813Z,4.32
2022-08-21T18:07:59.473Z,4.70
2022-08-21T18:10:28.297Z,4.50
2022-08-21T18:12:57.060Z,4.10
2022-08-21T18:15:26.925Z,4.50
2022-08-21T18:17:55.332Z,4.75
2022-08-21T18:20:25.206Z,4.15
2022-08-21T18:22:53.747Z,4.15
2022-08-21T18:25:22.486Z,4.38
2022-08-21T18:27:52.405Z,4.32
2022-08-21T18:30:26.717Z,4.43
2022-08-21T18:32:56.668Z,4.55
2022-08-21T18:35:26.139Z,3.97
2022-08-21T18:37:54.516Z,4.35
2022-08-21T18:40:23.073Z,4.18
2022-08-21T18:42:55.690Z,4.35
2022-08-21T18:45:26.209Z,4.35
2022-08-21T18:47:58.688Z,4.53
2022-08-21T18:50:29.193Z,4.57
2022-08-21T18:55:27.466Z,4.90
2022-08-21T18:57:57.758Z,4.38
2022-08-21T19:00:30.596Z,4.45
2022-08-21T19:03:00.171Z,4.30
2022-08-21T19:05:29.468Z,4.50
2022-08-21T19:07:59.063Z,4.20
2022-08-21T19:10:29.471Z,5.07
2022-08-21T19:13:01.125Z,4.13
2022-08-21T19:15:32.227Z,4.32
2022-08-21T19:18:00.878Z,3.97
2022-08-21T19:20:34.455Z,4.60
2022-08-21T19:23:05.299Z,4.22
2022-08-21T19:25:35.616Z,4.65
2022-08-21T19:28:11.360Z,4.45
2022-08-21T19:33:38.150Z,4.00
2022-08-21T19:36:10.262Z,4.50
2022-08-21T19:38:39.922Z,4.53
2022-08-21T19:41:11.790Z,5.23
2022-08-21T19:43:44.890Z,4.80
2022-08-21T19:46:27.586Z,4.85
2022-08-21T19:48:57.749Z,4.43
2022-08-21T19:51:26.706Z,5.05
2022-08-21T19:53:57.279Z,5.07
2022-08-21T19:56:29.382Z,4.50
2022-08-21T19:58:59.133Z,4.65
2022-08-21T20:01:29.625Z,5.05
2022-08-21T20:04:00.773Z,5.15
2022-08-21T20:06:29.180Z,4.00
2022-08-21T20:08:57.653Z,5.00
2022-08-21T20:11:34.679Z,4.70
2022-08-21T20:14:03.621Z,5.35
2022-08-21T20:16:33.809Z,5.15
2022-08-21T20:19:04.772Z,4.97
2022-08-21T20:21:43.616Z,4.45
2022-08-21T20:24:14.538Z,4.53
2022-08-21T20:26:49.277Z,4.70
2022-08-21T20:29:24.361Z,4.35
2022-08-21T20:32:02.541Z,4.50
2022-08-21T20:34:33.158Z,4.95
2022-08-21T20:37:02.684Z,5.18
2022-08-21T20:39:33.996Z,5.40
2022-08-21T20:42:02.356Z,4.90
2022-08-21T20:44:33.738Z,5.00
2022-08-21T20:47:08.865Z,5.65
2022-08-21T20:49:45.626Z,5.18
2022-08-21T20:52:17.889Z,4.15
2022-08-21T20:54:54.100Z,5.22
2022-08-21T20:57:32.723Z,4.95
2022-08-21T21:00:09.455Z,4.80
2022-08-21T21:02:55.428Z,4.88
2022-08-21T21:05:28.396Z,4.85
2022-08-21T21:08:05.124Z,5.15
2022-08-21T21:10:44.828Z,4.50
2022-08-21T21:13:23.430Z,4.90
2022-08-21T21:15:57.133Z,5.15
2022-08-21T21:18:36.488Z,4.63
2022-08-21T21:21:18.334Z,4.90
2022-08-21T21:23:52.015Z,5.00
2022-08-21T21:26:29.262Z,4.78
2022-08-21T21:29:06.037Z,4.95
2022-08-21T21:31:39.124Z,5.32
2022-08-21T21:34:17.261Z,5.07
2022-08-21T21:36:56.263Z,5.53
2022-08-21T21:39:36.288Z,5.10
2022-08-21T21:42:16.234Z,4.50
2022-08-21T21:45:04.948Z,4.93
2022-08-21T21:47:46.106Z,5.30
2022-08-21T21:50:35.442Z,5.55
2022-08-21T21:53:20.953Z,5.95
2022-08-21T21:56:07.502Z,5.47
2022-08-21T21:59:06.338Z,5.55
2022-08-21T22:01:42.991Z,5.53
2022-08-21T22:04:20.893Z,4.93
2022-08-21T22:07:09.488Z,5.10
2022-08-21T22:09:46.926Z,6.30
2022-08-21T22:12:49.834Z,6.72
2022-08-21T22:15:27.410Z,6.15
2022-08-21T22:18:03.402Z,6.15
2022-08-21T22:20:38.381Z,7.03
2022-08-21T22:23:15.954Z,6.78
2022-08-21T22:25:48.618Z,6.32
2022-08-21T22:28:25.416Z,6.05
2022-08-21T22:30:57.674Z,6.45
2022-08-21T22:33:30.355Z,5.75
2022-08-21T22:35:59.679Z,5.53
2022-08-21T22:38:37.093Z,5.93
2022-08-21T22:41:17.371Z,5.38
2022-08-21T22:43:55.678Z,6.32
2022-08-21T22:46:33.562Z,10.32
2022-08-21T22:49:08.070Z,9.85
2022-08-21T22:51:41.453Z,8.75
2022-08-21T22:54:22.045Z,9.00
2022-08-21T22:59:42.010Z,8.45
2022-08-21T23:02:31.186Z,7.70
2022-08-21T23:05:02.209Z,7.05
2022-08-21T23:10:34.014Z,5.15
2022-08-21T23:13:09.558Z,5.25
2022-08-21T23:15:50.767Z,5.20
2022-08-21T23:18:30.259Z,5.28
2022-08-21T23:21:06.464Z,5.45
2022-08-21T23:23:41.874Z,4.80
2022-08-21T23:26:22.901Z,5.20
2022-08-21T23:29:13.550Z,4.78
2022-08-21T23:32:03.691Z,5.33
2022-08-21T23:34:44.986Z,4.78
2022-08-21T23:37:49.215Z,4.78
2022-08-21T23:40:51.076Z,4.78
2022-08-21T23:43:45.666Z,5.07
2022-08-21T23:46:35.082Z,5.30
2022-08-21T23:49:20.401Z,4.80
2022-08-21T23:52:02.405Z,4.65
2022-08-21T23:54:56.070Z,4.93
2022-08-21T23:57:48.828Z,4.50
